sensor_id;sensor_type;location;lat;lon;timestamp;P1;durP1;ratioP1;P2;durP2;ratioP2
74495;SDS011;62979;55.720;37.606;2023-04-24T00:01:10;6.85;;;4.10;;
74495;SDS011;62979;55.720;37.606;2023-04-24T00:03:38;8.02;;;4.35;;
74495;SDS011;62979;55.720;37.606;2023-04-24T00:06:05;14.27;;;4.20;;
74495;SDS011;62979;55.720;37.606;2023-04-24T00:08:33;11.23;;;4.25;;
74495;SDS011;62979;55.720;37.606;2023-04-24T00:11:01;11.18;;;4.22;;
74495;SDS011;62979;55.720;37.606;2023-04-24T00:13:28;8.45;;;3.88;;
74495;SDS011;62979;55.720;37.606;2023-04-24T00:15:55;10.18;;;4.38;;
74495;SDS011;62979;55.720;37.606;2023-04-24T00:18:23;6.22;;;3.47;;
74495;SDS011;62979;55.720;37.606;2023-04-24T00:20:50;14.20;;;4.53;;
74495;SDS011;62979;55.720;37.606;2023-04-24T00:23:17;10.00;;;4.32;;
74495;SDS011;62979;55.720;37.606;2023-04-24T00:25:44;14.40;;;4.00;;
74495;SDS011;62979;55.720;37.606;2023-04-24T00:28:11;12.15;;;4.13;;
74495;SDS011;62979;55.720;37.606;2023-04-24T00:30:38;8.80;;;4.63;;
74495;SDS011;62979;55.720;37.606;2023-04-24T00:33:05;8.50;;;4.13;;
74495;SDS011;62979;55.720;37.606;2023-04-24T00:35:33;8.50;;;4.00;;
74495;SDS011;62979;55.720;37.606;2023-04-24T00:38:00;14.18;;;4.35;;
74495;SDS011;62979;55.720;37.606;2023-04-24T00:40:27;10.20;;;3.88;;
74495;SDS011;62979;55.720;37.606;2023-04-24T00:45:21;12.43;;;4.90;;
74495;SDS011;62979;55.720;37.606;2023-04-24T00:47:48;6.82;;;4.32;;
74495;SDS011;62979;55.720;37.606;2023-04-24T00:50:18;10.80;;;3.90;;
74495;SDS011;62979;55.720;37.606;2023-04-24T00:52:49;10.10;;;4.60;;
74495;SDS011;62979;55.720;37.606;2023-04-24T00:55:16;11.20;;;4.57;;
74495;SDS011;62979;55.720;37.606;2023-04-24T00:57:44;10.52;;;4.05;;
74495;SDS011;62979;55.720;37.606;2023-04-24T01:00:12;12.60;;;4.65;;
74495;SDS011;62979;55.720;37.606;2023-04-24T01:02:41;8.05;;;4.47;;
74495;SDS011;62979;55.720;37.606;2023-04-24T01:05:11;12.93;;;4.50;;
74495;SDS011;62979;55.720;37.606;2023-04-24T01:07:40;9.05;;;4.38;;
74495;SDS011;62979;55.720;37.606;2023-04-24T01:10:12;12.65;;;5.65;;
74495;SDS011;62979;55.720;37.606;2023-04-24T01:12:42;11.68;;;4.85;;
74495;SDS011;62979;55.720;37.606;2023-04-24T01:15:09;11.88;;;4.60;;
74495;SDS011;62979;55.720;37.606;2023-04-24T01:17:36;17.05;;;5.13;;
74495;SDS011;62979;55.720;37.606;2023-04-24T01:20:04;16.15;;;6.80;;
74495;SDS011;62979;55.720;37.606;2023-04-24T01:22:34;8.38;;;5.25;;
74495;SDS011;62979;55.720;37.606;2023-04-24T01:25:01;12.63;;;5.20;;
74495;SDS011;62979;55.720;37.606;2023-04-24T01:27:30;13.90;;;6.80;;
74495;SDS011;62979;55.720;37.606;2023-04-24T01:29:57;10.18;;;5.65;;
74495;SDS011;62979;55.720;37.606;2023-04-24T01:32:24;11.50;;;5.15;;
74495;SDS011;62979;55.720;37.606;2023-04-24T01:34:51;14.13;;;7.38;;
74495;SDS011;62979;55.720;37.606;2023-04-24T01:37:18;12.50;;;6.93;;
74495;SDS011;62979;55.720;37.606;2023-04-24T01:39:46;18.83;;;7.68;;
74495;SDS011;62979;55.720;37.606;2023-04-24T01:42:13;11.40;;;5.07;;
74495;SDS011;62979;55.720;37.606;2023-04-24T01:44:41;12.25;;;5.30;;
74495;SDS011;62979;55.720;37.606;2023-04-24T01:47:08;11.27;;;5.97;;
74495;SDS011;62979;55.720;37.606;2023-04-24T01:49:36;21.83;;;7.40;;
74495;SDS011;62979;55.720;37.606;2023-04-24T01:52:04;12.00;;;5.68;;
74495;SDS011;62979;55.720;37.606;2023-04-24T01:54:31;10.90;;;5.25;;
74495;SDS011;62979;55.720;37.606;2023-04-24T01:56:59;13.88;;;5.80;;
74495;SDS011;62979;55.720;37.606;2023-04-24T01:59:27;18.75;;;7.20;;
74495;SDS011;62979;55.720;37.606;2023-04-24T02:01:56;20.95;;;8.40;;
74495;SDS011;62979;55.720;37.606;2023-04-24T02:04:22;17.00;;;6.07;;
74495;SDS011;62979;55.720;37.606;2023-04-24T02:06:49;18.83;;;7.43;;
74495;SDS011;62979;55.720;37.606;2023-04-24T02:09:16;14.70;;;7.80;;
74495;SDS011;62979;55.720;37.606;2023-04-24T02:11:43;19.25;;;7.43;;
74495;SDS011;62979;55.720;37.606;2023-04-24T02:14:12;19.08;;;8.75;;
74495;SDS011;62979;55.720;37.606;2023-04-24T02:16:39;17.85;;;8.55;;
74495;SDS011;62979;55.720;37.606;2023-04-24T02:19:06;20.27;;;7.00;;
74495;SDS011;62979;55.720;37.606;2023-04-24T02:21:33;18.77;;;7.32;;
74495;SDS011;62979;55.720;37.606;2023-04-24T02:24:00;20.80;;;7.85;;
74495;SDS011;62979;55.720;37.606;2023-04-24T02:26:27;16.42;;;7.57;;
74495;SDS011;62979;55.720;37.606;2023-04-24T02:28:56;15.75;;;7.25;;
74495;SDS011;62979;55.720;37.606;2023-04-24T02:31:25;23.55;;;8.57;;
74495;SDS011;62979;55.720;37.606;2023-04-24T02:33:53;23.42;;;8.20;;
74495;SDS011;62979;55.720;37.606;2023-04-24T02:36:20;20.00;;;7.53;;
74495;SDS011;62979;55.720;37.606;2023-04-24T02:38:47;17.60;;;7.95;;
74495;SDS011;62979;55.720;37.606;2023-04-24T02:41:14;21.10;;;7.25;;
74495;SDS011;62979;55.720;37.606;2023-04-24T02:43:41;19.98;;;8.80;;
74495;SDS011;62979;55.720;37.606;2023-04-24T02:46:07;18.45;;;10.15;;
74495;SDS011;62979;55.720;37.606;2023-04-24T02:48:38;14.63;;;7.43;;
74495;SDS011;62979;55.720;37.606;2023-04-24T02:51:05;19.98;;;8.05;;
74495;SDS011;62979;55.720;37.606;2023-04-24T02:53:32;17.55;;;8.50;;
74495;SDS011;62979;55.720;37.606;2023-04-24T02:55:59;20.25;;;9.55;;
74495;SDS011;62979;55.720;37.606;2023-04-24T02:58:26;26.63;;;9.63;;
74495;SDS011;62979;55.720;37.606;2023-04-24T03:00:53;22.02;;;10.60;;
74495;SDS011;62979;55.720;37.606;2023-04-24T03:03:21;26.13;;;8.13;;
74495;SDS011;62979;55.720;37.606;2023-04-24T03:05:50;20.08;;;8.93;;
74495;SDS011;62979;55.720;37.606;2023-04-24T03:08:17;20.75;;;9.23;;
74495;SDS011;62979;55.720;37.606;2023-04-24T03:10:43;19.30;;;9.05;;
74495;SDS011;62979;55.720;37.606;2023-04-24T03:13:10;22.30;;;9.65;;
74495;SDS011;62979;55.720;37.606;2023-04-24T03:15:37;20.80;;;9.60;;
74495;SDS011;62979;55.720;37.606;2023-04-24T03:18:04;23.63;;;8.45;;
74495;SDS011;62979;55.720;37.606;2023-04-24T03:20:31;23.98;;;10.55;;
74495;SDS011;62979;55.720;37.606;2023-04-24T03:22:59;14.82;;;9.10;;
74495;SDS011;62979;55.720;37.606;2023-04-24T03:25:26;21.90;;;9.20;;
74495;SDS011;62979;55.720;37.606;2023-04-24T03:27:53;15.27;;;8.80;;
74495;SDS011;62979;55.720;37.606;2023-04-24T03:30:20;19.42;;;9.48;;
74495;SDS011;62979;55.720;37.606;2023-04-24T03:32:48;21.20;;;9.18;;
74495;SDS011;62979;55.720;37.606;2023-04-24T03:35:15;25.33;;;10.07;;
74495;SDS011;62979;55.720;37.606;2023-04-24T03:37:42;20.77;;;10.60;;
74495;SDS011;62979;55.720;37.606;2023-04-24T03:40:11;22.35;;;9.82;;
74495;SDS011;62979;55.720;37.606;2023-04-24T03:42:38;25.58;;;9.50;;
74495;SDS011;62979;55.720;37.606;2023-04-24T03:45:05;27.05;;;10.95;;
74495;SDS011;62979;55.720;37.606;2023-04-24T03:47:34;24.77;;;10.05;;
74495;SDS011;62979;55.720;37.606;2023-04-24T03:50:01;21.73;;;9.07;;
74495;SDS011;62979;55.720;37.606;2023-04-24T03:52:28;25.23;;;9.90;;
74495;SDS011;62979;55.720;37.606;2023-04-24T03:54:55;21.55;;;9.98;;
74495;SDS011;62979;55.720;37.606;2023-04-24T03:57:23;21.95;;;8.95;;
74495;SDS011;62979;55.720;37.606;2023-04-24T03:59:50;21.45;;;9.77;;
74495;SDS011;62979;55.720;37.606;2023-04-24T04:02:18;23.55;;;10.07;;
74495;SDS011;62979;55.720;37.606;2023-04-24T04:04:45;22.67;;;10.85;;
74495;SDS011;62979;55.720;37.606;2023-04-24T04:07:12;18.17;;;9.35;;
74495;SDS011;62979;55.720;37.606;2023-04-24T04:09:39;23.00;;;10.32;;
74495;SDS011;62979;55.720;37.606;2023-04-24T04:12:06;18.42;;;10.27;;
74495;SDS011;62979;55.720;37.606;2023-04-24T04:14:34;18.98;;;8.98;;
74495;SDS011;62979;55.720;37.606;2023-04-24T04:17:01;20.70;;;9.90;;
74495;SDS011;62979;55.720;37.606;2023-04-24T04:19:28;20.17;;;9.15;;
74495;SDS011;62979;55.720;37.606;2023-04-24T04:21:55;21.00;;;10.02;;
74495;SDS011;62979;55.720;37.606;2023-04-24T04:24:22;22.42;;;10.48;;
74495;SDS011;62979;55.720;37.606;2023-04-24T04:26:51;18.42;;;10.02;;
74495;SDS011;62979;55.720;37.606;2023-04-24T04:29:21;15.45;;;9.57;;
74495;SDS011;62979;55.720;37.606;2023-04-24T04:31:50;19.30;;;12.27;;
74495;SDS011;62979;55.720;37.606;2023-04-24T04:34:17;20.95;;;9.48;;
74495;SDS011;62979;55.720;37.606;2023-04-24T04:36:44;22.25;;;10.07;;
74495;SDS011;62979;55.720;37.606;2023-04-24T04:39:11;19.15;;;11.88;;
74495;SDS011;62979;55.720;37.606;2023-04-24T04:41:39;15.57;;;9.20;;
74495;SDS011;62979;55.720;37.606;2023-04-24T04:44:06;20.85;;;11.68;;
74495;SDS011;62979;55.720;37.606;2023-04-24T04:46:34;14.70;;;9.27;;
74495;SDS011;62979;55.720;37.606;2023-04-24T04:49:04;17.42;;;12.32;;
74495;SDS011;62979;55.720;37.606;2023-04-24T04:51:33;17.88;;;9.10;;
74495;SDS011;62979;55.720;37.606;2023-04-24T04:54:00;17.73;;;8.60;;
74495;SDS011;62979;55.720;37.606;2023-04-24T04:56:27;19.42;;;10.88;;
74495;SDS011;62979;55.720;37.606;2023-04-24T04:58:54;18.60;;;8.48;;
74495;SDS011;62979;55.720;37.606;2023-04-24T05:01:20;14.95;;;9.15;;
74495;SDS011;62979;55.720;37.606;2023-04-24T05:03:49;15.60;;;9.60;;
74495;SDS011;62979;55.720;37.606;2023-04-24T05:06:17;20.55;;;11.73;;
74495;SDS011;62979;55.720;37.606;2023-04-24T05:08:44;17.50;;;10.93;;
74495;SDS011;62979;55.720;37.606;2023-04-24T05:11:12;24.75;;;11.60;;
74495;SDS011;62979;55.720;37.606;2023-04-24T05:13:39;20.77;;;8.27;;
74495;SDS011;62979;55.720;37.606;2023-04-24T05:16:06;18.95;;;10.90;;
74495;SDS011;62979;55.720;37.606;2023-04-24T05:18:33;15.63;;;10.95;;
74495;SDS011;62979;55.720;37.606;2023-04-24T05:21:00;14.07;;;10.40;;
74495;SDS011;62979;55.720;37.606;2023-04-24T05:23:28;18.65;;;9.10;;
74495;SDS011;62979;55.720;37.606;2023-04-24T05:25:55;20.30;;;10.13;;
74495;SDS011;62979;55.720;37.606;2023-04-24T05:28:22;17.15;;;8.55;;
74495;SDS011;62979;55.720;37.606;2023-04-24T05:30:53;14.88;;;9.07;;
74495;SDS011;62979;55.720;37.606;2023-04-24T05:33:20;12.88;;;8.05;;
74495;SDS011;62979;55.720;37.606;2023-04-24T05:38:14;20.02;;;9.57;;
74495;SDS011;62979;55.720;37.606;2023-04-24T05:40:44;19.35;;;8.65;;
74495;SDS011;62979;55.720;37.606;2023-04-24T05:43:11;17.35;;;7.60;;
74495;SDS011;62979;55.720;37.606;2023-04-24T05:45:39;24.52;;;8.30;;
74495;SDS011;62979;55.720;37.606;2023-04-24T05:48:06;15.70;;;8.65;;
74495;SDS011;62979;55.720;37.606;2023-04-24T05:50:33;16.50;;;9.57;;
74495;SDS011;62979;55.720;37.606;2023-04-24T05:53:00;10.70;;;7.63;;
74495;SDS011;62979;55.720;37.606;2023-04-24T05:57:55;17.17;;;7.45;;
74495;SDS011;62979;55.720;37.606;2023-04-24T06:00:23;15.30;;;7.40;;
74495;SDS011;62979;55.720;37.606;2023-04-24T06:02:50;14.63;;;8.95;;
74495;SDS011;62979;55.720;37.606;2023-04-24T06:05:17;12.48;;;7.85;;
74495;SDS011;62979;55.720;37.606;2023-04-24T06:07:44;9.07;;;7.40;;
74495;SDS011;62979;55.720;37.606;2023-04-24T06:10:11;15.57;;;8.27;;
74495;SDS011;62979;55.720;37.606;2023-04-24T06:12:38;18.90;;;9.73;;
74495;SDS011;62979;55.720;37.606;2023-04-24T06:15:07;13.85;;;6.28;;
74495;SDS011;62979;55.720;37.606;2023-04-24T06:17:35;18.98;;;6.45;;
74495;SDS011;62979;55.720;37.606;2023-04-24T06:20:02;12.05;;;6.95;;
74495;SDS011;62979;55.720;37.606;2023-04-24T06:22:30;25.50;;;8.57;;
74495;SDS011;62979;55.720;37.606;2023-04-24T06:24:59;21.05;;;7.53;;
74495;SDS011;62979;55.720;37.606;2023-04-24T06:27:26;13.55;;;6.40;;
74495;SDS011;62979;55.720;37.606;2023-04-24T06:29:53;17.25;;;9.98;;
74495;SDS011;62979;55.720;37.606;2023-04-24T06:32:22;20.63;;;8.38;;
74495;SDS011;62979;55.720;37.606;2023-04-24T06:34:50;15.95;;;10.38;;
74495;SDS011;62979;55.720;37.606;2023-04-24T06:37:18;6.88;;;6.00;;
74495;SDS011;62979;55.720;37.606;2023-04-24T06:39:46;7.50;;;5.82;;
74495;SDS011;62979;55.720;37.606;2023-04-24T06:42:13;10.02;;;4.30;;
74495;SDS011;62979;55.720;37.606;2023-04-24T06:44:41;6.82;;;4.03;;
74495;SDS011;62979;55.720;37.606;2023-04-24T06:47:08;10.60;;;5.38;;
74495;SDS011;62979;55.720;37.606;2023-04-24T06:49:39;8.30;;;4.68;;
74495;SDS011;62979;55.720;37.606;2023-04-24T06:52:06;10.73;;;5.35;;
74495;SDS011;62979;55.720;37.606;2023-04-24T06:54:33;7.38;;;4.32;;
74495;SDS011;62979;55.720;37.606;2023-04-24T06:57:00;7.20;;;5.28;;
74495;SDS011;62979;55.720;37.606;2023-04-24T07:01:54;6.07;;;5.03;;
74495;SDS011;62979;55.720;37.606;2023-04-24T07:04:22;6.93;;;6.13;;
74495;SDS011;62979;55.720;37.606;2023-04-24T07:06:51;6.40;;;5.90;;
74495;SDS011;62979;55.720;37.606;2023-04-24T07:09:20;9.43;;;3.92;;
74495;SDS011;62979;55.720;37.606;2023-04-24T07:11:49;5.10;;;3.50;;
74495;SDS011;62979;55.720;37.606;2023-04-24T07:14:16;5.95;;;3.75;;
74495;SDS011;62979;55.720;37.606;2023-04-24T07:16:43;7.57;;;3.67;;
74495;SDS011;62979;55.720;37.606;2023-04-24T07:19:11;6.72;;;5.97;;
74495;SDS011;62979;55.720;37.606;2023-04-24T07:21:39;5.50;;;3.22;;
74495;SDS011;62979;55.720;37.606;2023-04-24T07:24:08;5.78;;;4.03;;
74495;SDS011;62979;55.720;37.606;2023-04-24T07:26:36;7.40;;;4.15;;
74495;SDS011;62979;55.720;37.606;2023-04-24T07:29:04;6.97;;;5.82;;
74495;SDS011;62979;55.720;37.606;2023-04-24T07:31:31;7.55;;;4.05;;
74495;SDS011;62979;55.720;37.606;2023-04-24T07:33:58;9.85;;;5.20;;
74495;SDS011;62979;55.720;37.606;2023-04-24T07:36:26;6.75;;;5.28;;
74495;SDS011;62979;55.720;37.606;2023-04-24T07:38:53;7.32;;;3.47;;
74495;SDS011;62979;55.720;37.606;2023-04-24T07:41:23;6.05;;;3.33;;
74495;SDS011;62979;55.720;37.606;2023-04-24T07:43:50;6.10;;;5.38;;
74495;SDS011;62979;55.720;37.606;2023-04-24T07:46:17;6.90;;;3.92;;
74495;SDS011;62979;55.720;37.606;2023-04-24T07:48:44;4.50;;;3.03;;
74495;SDS011;62979;55.720;37.606;2023-04-24T07:51:12;4.28;;;2.80;;
74495;SDS011;62979;55.720;37.606;2023-04-24T07:53:40;6.90;;;4.97;;
74495;SDS011;62979;55.720;37.606;2023-04-24T07:56:07;6.80;;;4.63;;
74495;SDS011;62979;55.720;37.606;2023-04-24T07:58:35;5.22;;;4.15;;
74495;SDS011;62979;55.720;37.606;2023-04-24T08:01:02;4.45;;;3.53;;
74495;SDS011;62979;55.720;37.606;2023-04-24T08:03:30;4.45;;;3.33;;
74495;SDS011;62979;55.720;37.606;2023-04-24T08:05:56;4.63;;;3.50;;
74495;SDS011;62979;55.720;37.606;2023-04-24T08:08:24;5.95;;;5.35;;
74495;SDS011;62979;55.720;37.606;2023-04-24T08:10:51;8.18;;;6.32;;
74495;SDS011;62979;55.720;37.606;2023-04-24T08:13:18;6.15;;;5.45;;
74495;SDS011;62979;55.720;37.606;2023-04-24T08:15:46;6.20;;;5.60;;
74495;SDS011;62979;55.720;37.606;2023-04-24T08:18:13;6.63;;;4.70;;
74495;SDS011;62979;55.720;37.606;2023-04-24T08:20:40;8.18;;;4.00;;
74495;SDS011;62979;55.720;37.606;2023-04-24T08:23:07;6.00;;;3.90;;
74495;SDS011;62979;55.720;37.606;2023-04-24T08:25:34;4.85;;;4.18;;
74495;SDS011;62979;55.720;37.606;2023-04-24T08:28:02;6.97;;;5.40;;
74495;SDS011;62979;55.720;37.606;2023-04-24T08:30:29;5.32;;;3.70;;
74495;SDS011;62979;55.720;37.606;2023-04-24T08:32:58;5.00;;;3.78;;
74495;SDS011;62979;55.720;37.606;2023-04-24T08:35:25;5.03;;;4.22;;
74495;SDS011;62979;55.720;37.606;2023-04-24T08:37:52;6.55;;;5.03;;
74495;SDS011;62979;55.720;37.606;2023-04-24T08:40:21;4.68;;;3.97;;
74495;SDS011;62979;55.720;37.606;2023-04-24T08:42:54;4.90;;;3.15;;
74495;SDS011;62979;55.720;37.606;2023-04-24T08:45:22;6.40;;;3.97;;
74495;SDS011;62979;55.720;37.606;2023-04-24T08:47:52;5.15;;;3.63;;
74495;SDS011;62979;55.720;37.606;2023-04-24T08:50:22;5.70;;;3.80;;
74495;SDS011;62979;55.720;37.606;2023-04-24T08:52:49;4.68;;;4.25;;
74495;SDS011;62979;55.720;37.606;2023-04-24T08:55:18;6.68;;;6.15;;
74495;SDS011;62979;55.720;37.606;2023-04-24T08:57:49;5.70;;;3.35;;
74495;SDS011;62979;55.720;37.606;2023-04-24T09:00:19;8.98;;;4.97;;
74495;SDS011;62979;55.720;37.606;2023-04-24T09:02:48;6.18;;;3.78;;
74495;SDS011;62979;55.720;37.606;2023-04-24T09:05:17;6.40;;;4.85;;
74495;SDS011;62979;55.720;37.606;2023-04-24T09:07:49;9.05;;;4.18;;
74495;SDS011;62979;55.720;37.606;2023-04-24T09:10:21;5.50;;;4.80;;
74495;SDS011;62979;55.720;37.606;2023-04-24T09:12:50;5.82;;;5.25;;
74495;SDS011;62979;55.720;37.606;2023-04-24T09:15:18;7.97;;;5.53;;
74495;SDS011;62979;55.720;37.606;2023-04-24T09:17:45;5.35;;;4.85;;
74495;SDS011;62979;55.720;37.606;2023-04-24T09:20:12;7.63;;;4.93;;
74495;SDS011;62979;55.720;37.606;2023-04-24T09:22:39;5.68;;;3.65;;
74495;SDS011;62979;55.720;37.606;2023-04-24T09:25:10;6.22;;;5.45;;
74495;SDS011;62979;55.720;37.606;2023-04-24T09:27:41;5.93;;;4.75;;
74495;SDS011;62979;55.720;37.606;2023-04-24T09:30:10;6.18;;;5.57;;
74495;SDS011;62979;55.720;37.606;2023-04-24T09:32:38;5.38;;;3.78;;
74495;SDS011;62979;55.720;37.606;2023-04-24T09:37:35;6.40;;;5.60;;
74495;SDS011;62979;55.720;37.606;2023-04-24T09:40:12;5.40;;;3.63;;
74495;SDS011;62979;55.720;37.606;2023-04-24T09:42:43;6.70;;;4.90;;
74495;SDS011;62979;55.720;37.606;2023-04-24T09:45:12;6.25;;;5.65;;
74495;SDS011;62979;55.720;37.606;2023-04-24T09:47:39;6.25;;;4.57;;
74495;SDS011;62979;55.720;37.606;2023-04-24T09:50:11;5.18;;;4.78;;
74495;SDS011;62979;55.720;37.606;2023-04-24T09:52:41;6.82;;;3.10;;
74495;SDS011;62979;55.720;37.606;2023-04-24T09:55:13;5.90;;;5.15;;
74495;SDS011;62979;55.720;37.606;2023-04-24T09:57:49;4.75;;;3.47;;
74495;SDS011;62979;55.720;37.606;2023-04-24T10:00:18;3.45;;;3.05;;
74495;SDS011;62979;55.720;37.606;2023-04-24T10:02:53;5.30;;;3.75;;
74495;SDS011;62979;55.720;37.606;2023-04-24T10:05:26;6.82;;;4.10;;
74495;SDS011;62979;55.720;37.606;2023-04-24T10:07:56;5.10;;;4.65;;
74495;SDS011;62979;55.720;37.606;2023-04-24T10:10:28;5.45;;;4.40;;
74495;SDS011;62979;55.720;37.606;2023-04-24T10:12:55;7.05;;;3.58;;
74495;SDS011;62979;55.720;37.606;2023-04-24T10:15:23;4.88;;;3.92;;
74495;SDS011;62979;55.720;37.606;2023-04-24T10:17:52;5.57;;;3.90;;
74495;SDS011;62979;55.720;37.606;2023-04-24T10:20:20;6.38;;;5.38;;
74495;SDS011;62979;55.720;37.606;2023-04-24T10:22:49;5.82;;;4.95;;
74495;SDS011;62979;55.720;37.606;2023-04-24T10:25:19;5.75;;;3.65;;
74495;SDS011;62979;55.720;37.606;2023-04-24T10:27:48;5.85;;;5.18;;
74495;SDS011;62979;55.720;37.606;2023-04-24T10:30:17;7.20;;;6.15;;
74495;SDS011;62979;55.720;37.606;2023-04-24T10:32:45;7.03;;;6.43;;
74495;SDS011;62979;55.720;37.606;2023-04-24T10:37:42;7.70;;;6.85;;
74495;SDS011;62979;55.720;37.606;2023-04-24T10:40:16;6.60;;;4.43;;
74495;SDS011;62979;55.720;37.606;2023-04-24T10:42:47;5.05;;;3.38;;
74495;SDS011;62979;55.720;37.606;2023-04-24T10:45:19;6.65;;;5.55;;
74495;SDS011;62979;55.720;37.606;2023-04-24T10:47:52;4.43;;;3.78;;
74495;SDS011;62979;55.720;37.606;2023-04-24T10:50:26;6.68;;;4.40;;
74495;SDS011;62979;55.720;37.606;2023-04-24T10:53:04;6.00;;;5.45;;
74495;SDS011;62979;55.720;37.606;2023-04-24T10:55:39;4.07;;;3.67;;
74495;SDS011;62979;55.720;37.606;2023-04-24T10:58:10;6.28;;;5.25;;
74495;SDS011;62979;55.720;37.606;2023-04-24T11:00:38;6.60;;;6.10;;
74495;SDS011;62979;55.720;37.606;2023-04-24T11:03:07;6.38;;;5.88;;
74495;SDS011;62979;55.720;37.606;2023-04-24T11:06:00;6.80;;;6.20;;
74495;SDS011;62979;55.720;37.606;2023-04-24T11:08:30;5.82;;;5.43;;
74495;SDS011;62979;55.720;37.606;2023-04-24T11:11:07;6.28;;;5.78;;
74495;SDS011;62979;55.720;37.606;2023-04-24T11:16:35;7.10;;;6.57;;
74495;SDS011;62979;55.720;37.606;2023-04-24T11:19:10;4.85;;;4.45;;
74495;SDS011;62979;55.720;37.606;2023-04-24T11:21:47;3.70;;;3.33;;
74495;SDS011;62979;55.720;37.606;2023-04-24T11:24:22;4.90;;;4.50;;
74495;SDS011;62979;55.720;37.606;2023-04-24T11:27:05;4.35;;;3.85;;
74495;SDS011;62979;55.720;37.606;2023-04-24T11:29:44;6.90;;;5.30;;
74495;SDS011;62979;55.720;37.606;2023-04-24T11:32:14;5.43;;;4.75;;
74495;SDS011;62979;55.720;37.606;2023-04-24T11:34:45;4.88;;;4.47;;
74495;SDS011;62979;55.720;37.606;2023-04-24T11:37:14;6.05;;;5.65;;
74495;SDS011;62979;55.720;37.606;2023-04-24T11:39:42;8.85;;;3.50;;
74495;SDS011;62979;55.720;37.606;2023-04-24T11:42:09;5.68;;;3.42;;
74495;SDS011;62979;55.720;37.606;2023-04-24T11:44:36;7.22;;;6.55;;
74495;SDS011;62979;55.720;37.606;2023-04-24T11:47:05;6.40;;;5.80;;
74495;SDS011;62979;55.720;37.606;2023-04-24T11:49:32;9.00;;;7.47;;
74495;SDS011;62979;55.720;37.606;2023-04-24T11:51:59;10.00;;;6.15;;
74495;SDS011;62979;55.720;37.606;2023-04-24T11:54:27;6.95;;;4.30;;
74495;SDS011;62979;55.720;37.606;2023-04-24T11:56:54;7.85;;;7.25;;
74495;SDS011;62979;55.720;37.606;2023-04-24T11:59:22;6.70;;;5.90;;
74495;SDS011;62979;55.720;37.606;2023-04-24T12:01:49;10.00;;;6.85;;
74495;SDS011;62979;55.720;37.606;2023-04-24T12:04:18;5.95;;;4.32;;
74495;SDS011;62979;55.720;37.606;2023-04-24T12:07:00;5.32;;;4.53;;
74495;SDS011;62979;55.720;37.606;2023-04-24T12:09:27;13.55;;;4.57;;
74495;SDS011;62979;55.720;37.606;2023-04-24T12:11:55;4.53;;;3.97;;
74495;SDS011;62979;55.720;37.606;2023-04-24T12:14:23;4.40;;;4.00;;
74495;SDS011;62979;55.720;37.606;2023-04-24T12:16:50;5.60;;;3.67;;
74495;SDS011;62979;55.720;37.606;2023-04-24T12:19:20;4.80;;;4.30;;
74495;SDS011;62979;55.720;37.606;2023-04-24T12:24:31;8.98;;;4.65;;
74495;SDS011;62979;55.720;37.606;2023-04-24T12:26:58;4.88;;;4.47;;
74495;SDS011;62979;55.720;37.606;2023-04-24T12:29:26;5.15;;;3.40;;
74495;SDS011;62979;55.720;37.606;2023-04-24T12:31:53;4.55;;;3.65;;
74495;SDS011;62979;55.720;37.606;2023-04-24T12:34:22;5.45;;;3.45;;
74495;SDS011;62979;55.720;37.606;2023-04-24T12:36:51;5.30;;;4.72;;
74495;SDS011;62979;55.720;37.606;2023-04-24T12:39:19;3.72;;;3.00;;
74495;SDS011;62979;55.720;37.606;2023-04-24T12:41:58;5.05;;;4.65;;
74495;SDS011;62979;55.720;37.606;2023-04-24T12:44:29;10.13;;;4.80;;
74495;SDS011;62979;55.720;37.606;2023-04-24T12:46:59;6.93;;;3.58;;
74495;SDS011;62979;55.720;37.606;2023-04-24T12:49:29;7.95;;;4.20;;
74495;SDS011;62979;55.720;37.606;2023-04-24T12:51:57;4.80;;;4.38;;
74495;SDS011;62979;55.720;37.606;2023-04-24T12:54:24;4.78;;;4.25;;
74495;SDS011;62979;55.720;37.606;2023-04-24T12:59:18;4.88;;;4.25;;
74495;SDS011;62979;55.720;37.606;2023-04-24T13:01:45;3.45;;;2.85;;
74495;SDS011;62979;55.720;37.606;2023-04-24T13:04:12;3.25;;;2.70;;
74495;SDS011;62979;55.720;37.606;2023-04-24T13:06:40;5.47;;;3.15;;
74495;SDS011;62979;55.720;37.606;2023-04-24T13:09:07;7.63;;;2.78;;
74495;SDS011;62979;55.720;37.606;2023-04-24T13:11:34;8.50;;;4.20;;
74495;SDS011;62979;55.720;37.606;2023-04-24T13:14:01;4.32;;;2.90;;
74495;SDS011;62979;55.720;37.606;2023-04-24T13:18:55;12.05;;;4.80;;
74495;SDS011;62979;55.720;37.606;2023-04-24T13:21:22;3.72;;;2.30;;
74495;SDS011;62979;55.720;37.606;2023-04-24T13:23:50;5.55;;;4.93;;
74495;SDS011;62979;55.720;37.606;2023-04-24T13:26:18;5.90;;;5.38;;
74495;SDS011;62979;55.720;37.606;2023-04-24T13:28:45;6.20;;;3.17;;
74495;SDS011;62979;55.720;37.606;2023-04-24T13:31:12;3.95;;;2.83;;
74495;SDS011;62979;55.720;37.606;2023-04-24T13:33:39;5.85;;;5.25;;
74495;SDS011;62979;55.720;37.606;2023-04-24T13:36:06;4.80;;;4.40;;
74495;SDS011;62979;55.720;37.606;2023-04-24T13:38:33;3.97;;;3.67;;
74495;SDS011;62979;55.720;37.606;2023-04-24T13:41:02;4.63;;;3.08;;
74495;SDS011;62979;55.720;37.606;2023-04-24T13:43:29;4.05;;;2.95;;
74495;SDS011;62979;55.720;37.606;2023-04-24T13:45:56;6.03;;;3.50;;
74495;SDS011;62979;55.720;37.606;2023-04-24T13:48:24;4.57;;;3.70;;
74495;SDS011;62979;55.720;37.606;2023-04-24T13:50:51;7.15;;;6.65;;
74495;SDS011;62979;55.720;37.606;2023-04-24T13:53:18;4.20;;;3.28;;
74495;SDS011;62979;55.720;37.606;2023-04-24T13:58:13;6.25;;;5.75;;
74495;SDS011;62979;55.720;37.606;2023-04-24T14:00:40;5.30;;;4.85;;
74495;SDS011;62979;55.720;37.606;2023-04-24T14:05:33;4.50;;;3.60;;
74495;SDS011;62979;55.720;37.606;2023-04-24T14:08:00;6.38;;;5.78;;
74495;SDS011;62979;55.720;37.606;2023-04-24T14:10:27;5.30;;;4.00;;
74495;SDS011;62979;55.720;37.606;2023-04-24T14:12:54;6.03;;;2.90;;
74495;SDS011;62979;55.720;37.606;2023-04-24T14:15:23;4.15;;;3.75;;
74495;SDS011;62979;55.720;37.606;2023-04-24T14:17:51;5.32;;;3.65;;
74495;SDS011;62979;55.720;37.606;2023-04-24T14:20:18;21.52;;;4.85;;
74495;SDS011;62979;55.720;37.606;2023-04-24T14:25:11;5.15;;;4.70;;
74495;SDS011;62979;55.720;37.606;2023-04-24T14:27:38;5.35;;;3.53;;
74495;SDS011;62979;55.720;37.606;2023-04-24T14:30:06;5.68;;;5.22;;
74495;SDS011;62979;55.720;37.606;2023-04-24T14:32:37;5.82;;;3.25;;
74495;SDS011;62979;55.720;37.606;2023-04-24T14:35:05;4.95;;;4.47;;
74495;SDS011;62979;55.720;37.606;2023-04-24T14:37:33;4.00;;;2.88;;
74495;SDS011;62979;55.720;37.606;2023-04-24T14:40:00;5.05;;;4.45;;
74495;SDS011;62979;55.720;37.606;2023-04-24T14:42:28;5.05;;;3.60;;
74495;SDS011;62979;55.720;37.606;2023-04-24T14:44:55;4.20;;;2.85;;
74495;SDS011;62979;55.720;37.606;2023-04-24T14:47:22;3.53;;;2.85;;
74495;SDS011;62979;55.720;37.606;2023-04-24T14:49:50;7.55;;;3.30;;
74495;SDS011;62979;55.720;37.606;2023-04-24T14:52:17;4.75;;;2.63;;
74495;SDS011;62979;55.720;37.606;2023-04-24T14:54:45;4.82;;;3.15;;
74495;SDS011;62979;55.720;37.606;2023-04-24T14:57:12;5.47;;;2.58;;
74495;SDS011;62979;55.720;37.606;2023-04-24T14:59:39;4.68;;;2.88;;
74495;SDS011;62979;55.720;37.606;2023-04-24T15:02:06;4.85;;;4.05;;
74495;SDS011;62979;55.720;37.606;2023-04-24T15:04:33;7.05;;;3.72;;
74495;SDS011;62979;55.720;37.606;2023-04-24T15:07:01;5.72;;;3.30;;